Time;durP1;ratioP1;P1;durP2;ratioP2;P2;SDS_P1;SDS_P2;PMS_P1;PMS_P2;Temp;Humidity;BMP_temperature;BMP_pressure;BME280_temperature;BME280_humidity;BME280_pressure;Samples;Min_cycle;Max_cycle;Signal;HPM_P1;HPM_P2
2021/12/17 00:01:16;;;;;;;;;;;;;;;24.70;15.52;100209.28;5065269;28;19927;-69
2021/12/17 00:03:45;;;;;;;;;;;;;;;24.70;15.61;100214.75;5064677;28;20420;-69
2021/12/17 00:06:16;;;;;;;;;;;;;;;24.70;15.75;100220.22;5065271;28;19924;-69
2021/12/17 00:08:42;;;;;;;;;;;;;;;24.71;15.70;100218.28;5066403;28;19917;-69
2021/12/17 00:11:07;;;;;;;;;;;;;;;24.71;15.59;100219.09;5065565;28;19948;-70
2021/12/17 00:13:32;;;;;;;;;;;;;;;24.70;15.67;100206.56;5063213;28;19970;-69
2021/12/17 00:15:58;;;;;;;;;;;;;;;24.70;15.52;100212.03;5055717;28;19954;-69
2021/12/17 00:18:35;;;;;;;;;;;;;;;24.68;15.46;100214.22;5056153;28;19959;-69
2021/12/17 00:48:36;;;;;;;;;;;;;;;24.60;15.64;100268.66;4974454;28;20264;-69
2021/12/17 00:53:52;;;;;;;;;;;;;;;24.61;15.64;100262.09;4974330;28;19945;-69
2021/12/17 00:56:17;;;;;;;;;;;;;;;24.59;15.48;100265.09;4974566;28;19918;-69
2021/12/17 00:58:42;;;;;;;;;;;;;;;24.60;15.54;100264.00;4974045;28;19945;-69
2021/12/17 01:01:08;;;;;;;;;;;;;;;24.60;15.82;100265.94;4973994;28;20018;-69
2021/12/17 01:03:33;;;;;;;;;;;;;;;24.59;15.69;100273.28;4973836;28;19925;-69
2021/12/17 01:05:58;;;;;;;;;;;;;;;24.58;15.62;100268.94;5028547;28;19913;-69
2021/12/17 01:08:23;;;;;;;;;;;;;;;24.58;15.79;100274.41;5034829;28;19925;-69
2021/12/17 01:10:50;;;;;;;;;;;;;;;24.56;15.74;100271.16;5034432;28;19924;-69
2021/12/17 01:13:15;;;;;;;;;;;;;;;24.56;15.83;100271.16;5034651;28;20051;-69
2021/12/17 01:15:41;;;;;;;;;;;;;;;24.57;15.74;100294.63;5034877;28;19948;-69
2021/12/17 01:18:11;;;;;;;;;;;;;;;24.57;15.69;100291.09;5034245;28;19921;-69
2021/12/17 01:23:41;;;;;;;;;;;;;;;24.54;15.65;100298.75;5034360;28;19917;-69
2021/12/17 01:36:36;;;;;;;;;;;;;;;24.50;15.71;100297.63;5054065;28;19932;-68
2021/12/17 01:44:10;;;;;;;;;;;;;;;24.49;15.73;100296.03;5054459;28;19963;-68
2021/12/17 01:46:36;;;;;;;;;;;;;;;24.49;15.63;100296.03;5053883;28;19921;-68
2021/12/17 01:59:51;;;;;;;;;;;;;;;24.46;15.63;100285.66;5054116;28;19916;-69
2021/12/17 02:02:16;;;;;;;;;;;;;;;24.45;15.64;100286.75;5052916;28;19939;-70
2021/12/17 02:04:43;;;;;;;;;;;;;;;24.48;15.57;100301.78;5054211;28;20355;-69
2021/12/17 02:07:08;;;;;;;;;;;;;;;24.47;15.97;100309.13;5054640;28;19917;-69
2021/12/17 02:28:49;;;;;;;;;;;;;;;24.43;15.58;100318.19;5045233;28;19924;-69
2021/12/17 02:33:39;;;;;;;;;;;;;;;24.42;15.76;100328.28;5033856;28;19971;-69
2021/12/17 02:36:06;;;;;;;;;;;;;;;24.41;15.68;100334.84;5033738;28;19924;-69
2021/12/17 02:38:35;;;;;;;;;;;;;;;24.42;15.66;100341.94;5034184;28;19971;-69
2021/12/17 02:46:32;;;;;;;;;;;;;;;24.39;15.83;100337.06;5033380;28;19948;-69
2021/12/17 02:48:57;;;;;;;;;;;;;;;24.39;15.61;100347.97;5033259;28;19917;-69
2021/12/17 02:51:22;;;;;;;;;;;;;;;24.40;15.92;100338.66;5033555;28;19921;-69
2021/12/17 02:53:47;;;;;;;;;;;;;;;24.39;15.88;100334.31;5033615;28;20382;-69
2021/12/17 02:56:13;;;;;;;;;;;;;;;24.39;15.81;100331.59;5033650;28;19967;-70
2021/12/17 02:58:38;;;;;;;;;;;;;;;24.40;15.71;100329.66;5035421;28;20375;-69
2021/12/17 03:01:05;;;;;;;;;;;;;;;24.39;16.04;100331.59;5039361;28;19917;-69
2021/12/17 03:03:31;;;;;;;;;;;;;;;24.38;15.73;100321.75;5038339;28;19917;-69
2021/12/17 03:05:57;;;;;;;;;;;;;;;24.37;15.85;100323.69;5037244;28;19922;-69
2021/12/17 03:08:22;;;;;;;;;;;;;;;24.38;15.61;100324.47;5035706;28;19928;-69
2021/12/17 03:10:48;;;;;;;;;;;;;;;24.38;15.90;100340.88;5036804;28;19962;-69
2021/12/17 03:13:16;;;;;;;;;;;;;;;24.37;15.86;100339.25;5036782;28;20008;-70
2021/12/17 03:23:41;;;;;;;;;;;;;;;24.35;15.76;100341.44;5036933;28;20012;-69
2021/12/17 03:26:10;;;;;;;;;;;;;;;24.35;15.61;100346.88;5036759;28;19917;-68
2021/12/17 03:28:36;;;;;;;;;;;;;;;24.34;15.95;100362.47;5043422;28;19971;-68
2021/12/17 03:31:01;;;;;;;;;;;;;;;24.35;15.74;100371.47;5056243;28;20339;-68
2021/12/17 03:33:26;;;;;;;;;;;;;;;24.33;15.76;100366.28;5056646;28;19917;-68
2021/12/17 03:35:51;;;;;;;;;;;;;;;24.34;15.79;100367.13;5056397;28;19924;-68
2021/12/17 03:38:17;;;;;;;;;;;;;;;24.32;15.73;100359.22;5056744;28;19928;-69
2021/12/17 03:40:43;;;;;;;;;;;;;;;24.33;15.72;100358.09;5056493;28;20039;-68
2021/12/17 03:43:13;;;;;;;;;;;;;;;24.34;15.83;100367.94;5056025;28;20287;-68
2021/12/17 03:45:39;;;;;;;;;;;;;;;24.34;15.72;100367.94;5056394;28;19917;-68
2021/12/17 03:48:04;;;;;;;;;;;;;;;24.33;15.72;100363.56;5056349;28;20315;-70
2021/12/17 03:50:33;;;;;;;;;;;;;;;24.32;15.61;100364.66;5056228;28;20371;-68
2021/12/17 03:52:59;;;;;;;;;;;;;;;24.31;15.81;100357.56;5055868;28;19925;-69
2021/12/17 03:55:24;;;;;;;;;;;;;;;24.31;15.72;100362.22;5055813;28;19917;-69
2021/12/17 03:57:49;;;;;;;;;;;;;;;24.31;15.99;100367.69;5055902;28;19948;-69
2021/12/17 04:00:14;;;;;;;;;;;;;;;24.31;15.66;100375.88;5055798;28;19924;-69
2021/12/17 04:02:39;;;;;;;;;;;;;;;24.31;15.67;100390.31;5055956;28;20367;-69
2021/12/17 04:05:05;;;;;;;;;;;;;;;24.25;15.91;100390.63;5056328;28;20321;-69
2021/12/17 04:07:30;;;;;;;;;;;;;;;24.13;16.17;100399.97;5055927;28;19996;-69
2021/12/17 04:10:18;;;;;;;1.55;0.10;;;;;;;24.11;16.16;100407.63;5132361;27;20398;-69
2021/12/17 04:12:54;;;;;;;0.10;0.10;;;;;;;24.10;16.06;100405.97;5131868;27;20066;-69
2021/12/17 04:15:29;;;;;;;0.20;0.10;;;;;;;24.09;15.87;100412.53;5131865;27;20023;-69
2021/12/17 04:17:57;;;;;;;0.55;0.20;;;;;;;24.12;16.23;100414.69;5131665;27;20465;-68
2021/12/17 04:20:22;;;;;;;0.10;0.10;;;;;;;24.15;16.30;100422.34;5131732;27;20028;-68
2021/12/17 04:22:48;;;;;;;0.20;0.20;;;;;;;24.20;16.09;100421.53;5131213;27;20298;-68
2021/12/17 04:25:13;;;;;;;0.10;0.10;;;;;;;24.23;16.13;100410.00;5131715;27;20035;-69
2021/12/17 04:27:39;;;;;;;0.10;0.10;;;;;;;24.30;15.99;100426.09;5131270;27;20019;-69
2021/12/17 04:30:04;;;;;;;0.10;0.10;;;;;;;24.34;16.25;100421.75;5150208;27;20027;-69
2021/12/17 04:32:30;;;;;;;0.38;0.20;;;;;;;24.40;16.00;100417.06;5152139;27;20027;-69
2021/12/17 04:34:55;;;;;;;0.10;0.10;;;;;;;24.45;15.92;100417.84;5152210;27;20479;-69
2021/12/17 04:37:21;;;;;;;0.10;0.10;;;;;;;24.48;16.24;100417.31;5150805;27;20026;-69
2021/12/17 04:39:46;;;;;;;0.13;0.13;;;;;;;24.53;15.62;100413.75;5152101;27;20548;-69
2021/12/17 04:42:19;;;;;;;0.10;0.10;;;;;;;24.61;15.94;100424.13;5152059;27;20026;-68
2021/12/17 04:44:51;;;;;;;0.20;0.20;;;;;;;24.66;16.14;100428.72;5152299;27;20023;-68
2021/12/17 04:57:56;;;;;;;0.20;0.20;;;;;;;24.79;15.62;100439.06;5151625;27;20521;-68
2021/12/17 05:00:24;;;;;;;0.98;0.20;;;;;;;24.91;15.63;100433.25;5151755;27;20049;-68
2021/12/17 05:02:52;;;;;;;0.10;0.10;;;;;;;24.92;15.80;100437.59;5151922;27;20051;-68
2021/12/17 05:05:19;;;;;;;0.10;0.10;;;;;;;24.92;15.92;100440.31;5151712;27;20026;-68
2021/12/17 05:07:50;;;;;;;0.20;0.20;;;;;;;24.99;16.04;100448.22;5151297;27;20084;-68
2021/12/17 05:10:32;;;;;;;0.35;0.20;;;;;;;25.06;15.78;100444.09;5151107;27;20084;-68
2021/12/17 05:18:28;;;;;;;1.60;0.68;;;;;;;25.23;15.42;100471.06;5151355;27;20042;-68
2021/12/17 05:21:00;;;;;;;2.72;1.10;;;;;;;25.20;15.51;100471.63;5141652;27;20034;-69
2021/12/17 05:23:30;;;;;;;2.65;0.80;;;;;;;25.16;15.51;100480.66;5137400;27;20027;-69
2021/12/17 05:25:57;;;;;;;3.08;0.70;;;;;;;25.26;15.23;100484.16;5139205;27;20031;-69
2021/12/17 05:28:23;;;;;;;3.28;0.98;;;;;;;25.22;15.16;100480.34;5133609;27;20020;-68
2021/12/17 05:30:48;;;;;;;5.03;1.10;;;;;;;25.29;15.25;100491.00;5116592;28;20024;-68
2021/12/17 05:33:14;;;;;;;1.88;0.80;;;;;;;25.37;15.33;100489.56;5117127;28;20041;-69
2021/12/17 05:35:40;;;;;;;2.45;0.75;;;;;;;25.36;15.17;100491.50;5116872;27;20076;-68
2021/12/17 05:38:06;;;;;;;6.80;1.00;;;;;;;25.42;15.27;100497.75;5116546;28;20020;-69
2021/12/17 05:40:32;;;;;;;1.83;0.65;;;;;;;25.36;15.20;100501.63;5116163;28;20027;-68
2021/12/17 05:43:00;;;;;;;1.90;0.60;;;;;;;25.42;14.92;100508.69;5116271;28;20032;-69
2021/12/17 05:45:34;;;;;;;1.02;0.50;;;;;;;25.37;15.74;100519.66;5116196;28;20024;-69
2021/12/17 05:48:01;;;;;;;1.00;0.40;;;;;;;25.41;15.54;100534.44;5116421;28;20034;-69
2021/12/17 05:50:26;;;;;;;1.25;0.50;;;;;;;25.46;15.32;100529.72;5116410;28;20424;-69
2021/12/17 05:52:52;;;;;;;0.90;0.40;;;;;;;25.50;14.98;100535.44;5116148;28;20024;-70
2021/12/17 05:55:17;;;;;;;1.08;0.38;;;;;;;25.49;15.20;100533.81;5116747;28;20035;-69
2021/12/17 05:57:42;;;;;;;0.63;0.32;;;;;;;25.43;15.41;100535.75;5115135;28;20020;-69
2021/12/17 06:00:08;;;;;;;0.22;0.22;;;;;;;25.34;15.11;100536.66;5116387;28;20088;-70
2021/12/17 06:02:34;;;;;;;0.88;0.32;;;;;;;25.55;15.03;100549.09;5116239;28;20030;-68
2021/12/17 06:04:59;;;;;;;0.50;0.40;;;;;;;25.62;15.04;100546.84;5116290;28;20019;-68
2021/12/17 06:07:28;;;;;;;0.40;0.30;;;;;;;25.65;14.92;100553.69;5116322;28;20027;-68
2021/12/17 06:09:54;;;;;;;0.22;0.22;;;;;;;25.63;15.08;100555.88;5115295;28;20052;-69
2021/12/17 06:12:20;;;;;;;3.25;0.40;;;;;;;25.66;15.33;100550.69;5115598;28;20027;-67
2021/12/17 06:14:45;;;;;;;0.40;0.38;;;;;;;25.67;14.83;100565.97;5114697;28;20031;-68
2021/12/17 06:17:11;;;;;;;1.95;0.30;;;;;;;25.66;15.43;100575.31;5116093;28;20050;-68
2021/12/17 06:19:36;;;;;;;1.00;0.40;;;;;;;25.70;15.54;100577.44;5114839;28;20392;-67
2021/12/17 06:22:02;;;;;;;0.73;0.45;;;;;;;25.82;15.00;100588.88;5114416;28;20023;-67
2021/12/17 06:24:27;;;;;;;0.55;0.28;;;;;;;25.77;15.05;100606.16;5115173;27;20466;-67
2021/12/17 06:26:52;;;;;;;1.88;0.38;;;;;;;25.78;14.99;100620.66;5115469;28;20020;-67
2021/12/17 06:29:18;;;;;;;0.63;0.35;;;;;;;25.82;14.94;100632.69;5125520;27;20054;-67
2021/12/17 06:31:43;;;;;;;0.57;0.38;;;;;;;25.85;15.19;100632.94;5134689;27;20020;-68
2021/12/17 06:34:09;;;;;;;0.20;0.20;;;;;;;25.83;14.95;100637.03;5135692;27;20050;-69
2021/12/17 06:36:34;;;;;;;0.80;0.20;;;;;;;25.84;15.49;100646.91;5136469;27;20031;-69
2021/12/17 06:38:59;;;;;;;2.42;0.30;;;;;;;25.94;14.79;100646.88;5135881;27;20388;-68
2021/12/17 06:41:25;;;;;;;1.55;0.25;;;;;;;25.99;14.76;100644.09;5135296;27;20465;-70
2021/12/17 06:43:50;;;;;;;0.17;0.17;;;;;;;26.03;14.64;100647.88;5135244;27;20023;-70
2021/12/17 06:48:46;;;;;;;0.20;0.20;;;;;;;26.09;14.52;100659.63;5135899;27;20023;-70
2021/12/17 06:57:50;;;;;;;0.20;0.20;;;;;;;26.03;15.00;100656.09;5135539;27;20050;-66
2021/12/17 06:59:44;;;;;;;0.20;0.20;;;;;;;26.05;14.88;100662.09;5131419;27;20059;-66
2021/12/17 07:10:30;;;;;;;0.25;0.25;;;;;;;26.15;14.86;100685.06;5134680;27;20392;-67
2021/12/17 07:34:01;;;;;;;0.45;0.25;;;;;;;26.15;14.82;100737.91;5114552;28;20035;-67
2021/12/17 07:36:36;;;;;;;0.22;0.20;;;;;;;26.21;14.55;100738.69;5114481;28;20028;-68
2021/12/17 07:39:02;;;;;;;0.20;0.20;;;;;;;26.24;14.67;100738.13;5113952;28;20036;-68
2021/12/17 07:41:27;;;;;;;2.72;0.40;;;;;;;26.16;14.64;100741.47;5113923;28;20034;-67
2021/12/17 07:43:56;;;;;;;0.20;0.20;;;;;;;26.11;14.79;100736.03;5114998;28;20020;-67
2021/12/17 07:46:21;;;;;;;0.28;0.20;;;;;;;26.11;14.68;100742.31;5114295;28;20032;-67
2021/12/17 07:48:47;;;;;;;0.55;0.30;;;;;;;26.18;14.89;100748.31;5114047;28;20034;-65
2021/12/17 07:51:13;;;;;;;0.20;0.20;;;;;;;26.26;14.81;100748.81;5112912;28;20020;-67
2021/12/17 07:53:39;;;;;;;0.13;0.10;;;;;;;26.31;14.38;100746.84;5114772;28;20030;-66
2021/12/17 07:56:05;;;;;;;0.20;0.20;;;;;;;26.38;14.37;100755.56;5114450;28;20023;-68
2021/12/17 07:58:31;;;;;;;0.17;0.17;;;;;;;26.46;14.32;100754.16;5114496;28;20030;-69
2021/12/17 08:00:56;;;;;;;0.20;0.20;;;;;;;26.52;14.22;100749.44;5114023;28;20461;-69
2021/12/17 08:03:22;;;;;;;27.13;12.43;;;;;;;26.54;14.36;100739.00;5113970;28;20152;-67
2021/12/17 08:05:47;;;;;;;27.02;10.60;;;;;;;26.47;14.37;100754.97;5114139;28;20059;-67
2021/12/17 08:08:13;;;;;;;15.80;7.00;;;;;;;26.49;14.36;100756.31;5113593;28;20067;-67
2021/12/17 08:10:38;;;;;;;11.38;4.53;;;;;;;26.46;14.73;100754.16;5113617;28;20346;-68
2021/12/17 08:13:06;;;;;;;7.93;3.90;;;;;;;26.55;14.21;100751.63;5113335;28;20023;-67
2021/12/17 08:15:37;;;;;;;5.63;2.75;;;;;;;26.60;14.10;100759.78;5114371;28;20388;-67
2021/12/17 08:28:16;;;;;;;4.60;1.67;;;;;;;26.58;14.22;100783.94;5113521;28;20020;-67
2021/12/17 08:30:41;;;;;;;5.85;1.13;;;;;;;26.65;14.26;100780.88;5133538;28;20045;-67
2021/12/17 08:33:07;;;;;;;2.45;1.00;;;;;;;26.62;14.05;100790.50;5134464;27;20043;-67
2021/12/17 08:35:36;;;;;;;1.95;0.77;;;;;;;26.68;14.00;100788.53;5133969;28;20484;-67
2021/12/17 08:38:04;;;;;;;0.80;0.63;;;;;;;26.60;14.32;100789.94;5133794;27;20023;-67
2021/12/17 08:40:31;;;;;;;2.17;0.70;;;;;;;26.56;14.18;100786.13;5132483;28;20111;-67
2021/12/17 08:42:56;;;;;;;1.20;0.57;;;;;;;26.61;14.21;100794.31;5134111;27;20495;-66
2021/12/17 08:45:21;;;;;;;1.05;0.57;;;;;;;26.65;14.09;100795.41;5133506;28;20032;-65
2021/12/17 08:47:48;;;;;;;0.70;0.45;;;;;;;26.53;14.21;100817.66;5133323;28;20027;-66
2021/12/17 08:50:13;;;;;;;1.10;0.50;;;;;;;26.46;14.43;100821.81;5136158;27;20072;-67
2021/12/17 08:52:39;;;;;;;0.85;0.60;;;;;;;26.54;14.29;100804.78;5135884;27;20049;-66
2021/12/17 08:55:05;;;;;;;1.30;1.08;;;;;;;26.63;14.03;100816.81;5134601;27;20011;-67
2021/12/17 08:57:30;;;;;;;1.77;1.02;;;;;;;26.64;14.11;100806.66;5139554;27;20050;-66
2021/12/17 08:59:57;;;;;;;2.03;0.98;;;;;;;26.48;14.64;100811.41;5140723;27;20027;-67
2021/12/17 09:02:24;;;;;;;0.98;0.65;;;;;;;26.43;14.61;100815.00;5138424;27;20107;-67
2021/12/17 09:04:49;;;;;;;1.42;1.00;;;;;;;26.47;14.41;100826.22;5139604;27;20460;-67
2021/12/17 09:07:15;;;;;;;1.30;0.85;;;;;;;26.60;14.01;100836.53;5137185;27;20027;-67
2021/12/17 09:09:40;;;;;;;1.30;1.20;;;;;;;26.56;14.09;100825.34;5137257;27;20047;-66
2021/12/17 09:12:06;;;;;;;1.13;1.02;;;;;;;26.53;14.05;100830.56;5137834;27;20019;-66
2021/12/17 09:14:35;;;;;;;0.60;0.60;;;;;;;26.60;13.91;100831.06;5137495;27;20457;-67
2021/12/17 09:17:00;;;;;;;0.95;0.85;;;;;;;26.58;13.95;100836.00;5137035;27;20031;-66
2021/12/17 09:19:26;;;;;;;1.00;0.70;;;;;;;26.67;13.90;100841.75;5136484;27;20034;-66
2021/12/17 09:21:51;;;;;;;0.40;0.40;;;;;;;26.58;14.03;100836.00;5136554;27;20087;-66
2021/12/17 09:24:17;;;;;;;0.88;0.55;;;;;;;26.51;13.63;100828.09;5136571;27;20030;-67
2021/12/17 09:26:42;;;;;;;1.30;0.70;;;;;;;26.51;13.92;100844.56;5136647;27;20023;-66
2021/12/17 09:29:10;;;;;;;1.17;0.80;;;;;;;26.60;14.04;100842.03;5131154;27;20045;-67
2021/12/17 09:31:36;;;;;;;1.00;0.73;;;;;;;26.64;13.69;100842.31;5116198;28;20322;-68
2021/12/17 09:34:02;;;;;;;1.17;0.70;;;;;;;26.63;13.59;100841.50;5117104;28;20399;-67
2021/12/17 09:36:27;;;;;;;1.00;0.77;;;;;;;26.67;13.76;100837.06;5116601;28;20045;-66
2021/12/17 09:38:53;;;;;;;1.17;0.60;;;;;;;26.61;13.53;100824.47;5120283;28;20045;-66
2021/12/17 09:41:20;;;;;;;0.85;0.40;;;;;;;26.61;13.62;100839.00;5119926;28;20019;-66
2021/12/17 09:43:46;;;;;;;0.47;0.47;;;;;;;26.66;13.64;100834.59;5118549;28;20024;-67
2021/12/17 09:46:11;;;;;;;0.50;0.43;;;;;;;26.65;13.94;100832.97;5120385;28;20470;-68
2021/12/17 09:48:37;;;;;;;0.68;0.40;;;;;;;26.67;13.57;100830.78;5119202;28;20127;-69
2021/12/17 09:51:04;;;;;;;0.40;0.40;;;;;;;26.67;13.75;100834.31;5116188;28;20354;-70
2021/12/17 09:53:30;;;;;;;1.45;0.50;;;;;;;26.69;13.58;100834.84;5116352;28;20054;-70
2021/12/17 09:55:56;;;;;;;0.63;0.30;;;;;;;26.74;13.43;100836.75;5117442;28;20020;-70
2021/12/17 09:58:21;;;;;;;0.30;0.30;;;;;;;26.72;13.54;100844.44;5116893;27;20598;-69
2021/12/17 10:00:47;;;;;;;0.70;0.30;;;;;;;26.72;13.63;100845.25;5115644;28;20027;-70
2021/12/17 10:03:12;;;;;;;0.52;0.40;;;;;;;26.72;13.76;100853.47;5115820;28;20020;-70
2021/12/17 10:05:39;;;;;;;0.60;0.30;;;;;;;26.72;13.51;100849.94;5115757;28;20122;-70
2021/12/17 10:08:05;;;;;;;1.38;0.30;;;;;;;26.70;13.80;100842.00;5115340;28;20027;-70
2021/12/17 10:10:35;;;;;;;0.20;0.20;;;;;;;26.63;13.58;100836.00;5115382;28;20019;-70
2021/12/17 10:13:24;;;;;;;0.70;0.45;;;;;;;26.75;13.76;100844.69;5115405;28;20035;-71
2021/12/17 10:15:51;;;;;;;0.20;0.20;;;;;;;26.69;13.64;100845.81;5115167;28;20426;-70
2021/12/17 10:18:17;;;;;;;0.30;0.30;;;;;;;26.72;13.58;100850.75;5115494;28;20027;-71
2021/12/17 10:20:58;;;;;;;0.52;0.30;;;;;;;26.75;13.74;100857.56;5117879;28;20096;-70
2021/12/17 10:23:24;;;;;;;1.00;0.50;;;;;;;26.55;13.58;100862.06;5115180;28;20040;-71
2021/12/17 10:25:50;;;;;;;2.38;0.57;;;;;;;26.67;13.70;100869.97;5115122;28;20072;-70
2021/12/17 10:28:15;;;;;;;0.63;0.50;;;;;;;26.73;13.82;100877.06;5116574;28;20019;-70
2021/12/17 10:30:45;;;;;;;0.43;0.43;;;;;;;26.72;13.95;100875.41;5131690;27;20525;-69
2021/12/17 10:33:14;;;;;;;0.50;0.40;;;;;;;26.76;13.80;100873.72;5135906;27;20483;-69
2021/12/17 10:35:44;;;;;;;2.67;0.50;;;;;;;26.77;13.95;100883.59;5136351;27;20027;-70
2021/12/17 10:38:12;;;;;;;0.35;0.30;;;;;;;26.63;13.95;100885.34;5135727;27;20027;-67
2021/12/17 10:40:49;;;;;;;0.70;0.40;;;;;;;26.77;13.76;100889.09;5135710;27;20035;-66
2021/12/17 10:43:27;;;;;;;0.45;0.40;;;;;;;26.83;13.85;100895.34;5135664;27;20029;-66
2021/12/17 10:46:23;;;;;;;1.10;1.00;;;;;;;26.78;13.88;100901.69;5135340;27;20031;-66
2021/12/17 10:54:20;;;;;;;1.70;0.80;;;;;;;26.89;13.74;100918.91;5071845;28;20043;-66
2021/12/17 10:56:53;;;;;;;1.27;0.70;;;;;;;26.90;13.87;100922.47;5072017;28;20044;-66
2021/12/17 10:59:22;;;;;;;1.80;0.90;;;;;;;26.89;13.73;100932.63;5072638;28;20056;-66
2021/12/17 11:01:49;;;;;;;2.20;0.73;;;;;;;26.89;13.94;100932.63;5056477;28;20071;-66
2021/12/17 11:04:30;;;;;;;1.45;0.77;;;;;;;26.96;13.78;100932.31;5072503;28;20020;-66
2021/12/17 11:07:03;;;;;;;0.98;0.65;;;;;;;26.99;13.58;100937.19;5073073;28;20025;-65
2021/12/17 11:10:00;;;;;;;1.38;0.90;;;;;;;26.98;13.79;100941.88;5071260;28;20511;-67
2021/12/17 11:12:41;;;;;;;2.47;1.10;;;;;;;27.05;13.46;100936.06;5068934;28;20044;-67
2021/12/17 11:15:10;;;;;;;1.27;0.70;;;;;;;27.01;13.82;100951.47;5055660;28;20036;-69
2021/12/17 11:17:35;;;;;;;1.08;0.70;;;;;;;26.93;13.48;100963.03;5071611;28;20130;-69
2021/12/17 11:20:19;;;;;;;0.75;0.50;;;;;;;26.98;13.67;100963.00;5072215;28;20028;-67
2021/12/17 11:22:45;;;;;;;2.63;0.60;;;;;;;27.04;13.69;100958.28;5071529;28;20079;-67
2021/12/17 11:25:11;;;;;;;1.48;0.70;;;;;;;27.02;13.73;100966.00;5071490;28;20052;-69
2021/12/17 11:27:37;;;;;;;1.20;0.50;;;;;;;27.01;13.88;100973.41;5075715;27;20092;-68
2021/12/17 11:30:11;;;;;;;2.38;1.02;;;;;;;27.07;13.89;100975.00;5123829;27;20024;-69
2021/12/17 11:32:37;;;;;;;2.20;1.05;;;;;;;27.01;13.77;100984.38;5116017;28;20030;-70
2021/12/17 11:35:04;;;;;;;2.67;0.80;;;;;;;27.03;13.72;100995.03;5115695;28;20213;-67
2021/12/17 11:37:29;;;;;;;2.05;1.10;;;;;;;27.00;13.70;100976.44;5117461;28;20020;-69
2021/12/17 11:39:57;;;;;;;1.40;0.70;;;;;;;27.03;13.69;100959.38;5117436;28;20119;-68
2021/12/17 11:42:29;;;;;;;1.73;0.70;;;;;;;27.08;13.75;100960.19;5113572;28;20023;-69
2021/12/17 11:47:43;;;;;;;1.20;0.60;;;;;;;26.99;13.59;100953.66;5112608;28;20110;-69
2021/12/17 11:50:10;;;;;;;1.88;0.50;;;;;;;27.06;13.63;100958.81;5114165;28;20023;-68
2021/12/17 11:52:35;;;;;;;1.38;0.35;;;;;;;27.09;13.38;100950.03;5117009;28;20020;-68
2021/12/17 11:55:22;;;;;;;0.95;0.40;;;;;;;27.16;13.74;100969.72;5120743;27;20036;-67
2021/12/17 11:57:49;;;;;;;2.03;0.40;;;;;;;27.10;13.67;100957.97;5120954;28;20027;-67
2021/12/17 12:00:15;;;;;;;0.38;0.30;;;;;;;26.98;13.75;100966.56;5118559;28;20115;-67
2021/12/17 12:02:46;;;;;;;2.67;0.40;;;;;;;27.05;13.58;100963.50;5118105;28;20152;-68
2021/12/17 12:05:14;;;;;;;1.20;0.30;;;;;;;27.13;13.49;100970.28;5120682;28;20024;-69
2021/12/17 12:07:40;;;;;;;0.50;0.30;;;;;;;27.12;13.51;100985.13;5097217;28;20077;-67
2021/12/17 12:10:13;;;;;;;0.60;0.38;;;;;;;27.11;13.23;100989.81;5116313;28;20064;-68
2021/12/17 12:12:38;;;;;;;0.57;0.38;;;;;;;27.12;13.29;100985.13;5113914;28;20036;-68
2021/12/17 12:15:25;;;;;;;1.67;0.50;;;;;;;27.15;13.49;100984.56;5113222;28;20073;-69
2021/12/17 12:18:07;;;;;;;2.13;0.43;;;;;;;27.10;13.36;100982.66;5113414;28;20309;-66
2021/12/17 12:20:48;;;;;;;2.78;0.50;;;;;;;27.12;13.56;100980.44;5113649;28;20292;-67
2021/12/17 12:23:13;;;;;;;0.77;0.35;;;;;;;27.10;13.32;100976.38;5112944;28;20202;-67
2021/12/17 12:25:39;;;;;;;2.50;0.57;;;;;;;27.09;13.46;100991.19;5113156;28;20094;-66
2021/12/17 12:28:04;;;;;;;0.98;0.50;;;;;;;27.10;13.38;100992.81;5113014;28;20023;-69
2021/12/17 12:30:41;;;;;;;1.45;0.45;;;;;;;27.14;13.62;100989.22;5110494;27;20031;-69
2021/12/17 12:33:07;;;;;;;2.38;0.40;;;;;;;27.11;13.19;100995.28;5119572;27;20442;-67
2021/12/17 12:35:32;;;;;;;2.13;0.40;;;;;;;27.10;13.50;100999.13;5137642;27;20484;-68
2021/12/17 12:38:18;;;;;;;0.93;0.45;;;;;;;27.14;13.56;101005.69;5137591;27;20023;-66
2021/12/17 12:40:50;;;;;;;0.95;0.45;;;;;;;27.06;13.64;101010.94;5137285;27;20019;-67
2021/12/17 12:43:32;;;;;;;0.93;0.57;;;;;;;27.12;13.66;101018.88;5137764;27;20076;-68
2021/12/17 12:45:58;;;;;;;0.43;0.38;;;;;;;27.11;13.24;101019.13;5137518;27;20027;-67
2021/12/17 12:48:36;;;;;;;0.45;0.30;;;;;;;27.12;13.38;101021.59;5136726;27;20091;-67
2021/12/17 12:51:21;;;;;;;1.25;0.50;;;;;;;27.22;13.61;101036.38;5137985;27;20156;-67
2021/12/17 12:54:08;;;;;;;1.23;0.45;;;;;;;27.19;13.41;101051.47;5138462;27;20483;-67
2021/12/17 12:56:37;;;;;;;1.00;0.50;;;;;;;27.09;13.55;101046.84;5137945;27;20034;-67
2021/12/17 12:59:03;;;;;;;1.15;0.50;;;;;;;27.11;13.31;101050.16;5136233;27;20447;-68
2021/12/17 13:01:28;;;;;;;1.17;0.50;;;;;;;27.09;13.44;101048.78;5119407;27;20046;-68
2021/12/17 13:03:54;;;;;;;1.77;0.68;;;;;;;27.15;13.45;101050.41;5137549;27;20113;-69
2021/12/17 13:06:20;;;;;;;1.75;0.80;;;;;;;27.15;13.34;101051.22;5137484;27;20034;-68
2021/12/17 13:08:55;;;;;;;1.58;0.75;;;;;;;26.86;14.25;101058.50;5137102;27;20056;-68
2021/12/17 13:11:21;;;;;;;3.47;0.93;;;;;;;27.10;13.42;101075.94;5137179;27;20024;-68
2021/12/17 13:13:53;;;;;;;2.85;0.82;;;;;;;27.07;13.99;101075.69;5137513;27;20038;-67
2021/12/17 13:16:23;;;;;;;2.03;0.80;;;;;;;27.07;13.68;101089.41;5137652;27;20027;-67
2021/12/17 13:24:13;;;;;;;0.63;0.57;;;;;;;27.16;13.42;101106.91;5136663;27;20034;-67
2021/12/17 13:27:00;;;;;;;0.93;0.40;;;;;;;27.22;13.44;101100.31;5136985;27;20019;-68
2021/12/17 13:29:35;;;;;;;1.35;0.50;;;;;;;27.20;13.46;101107.16;5132025;27;20011;-68
2021/12/17 13:32:04;;;;;;;4.07;1.65;;;;;;;27.14;13.51;101114.59;5116187;27;20519;-67
2021/12/17 13:34:32;;;;;;;2.17;0.77;;;;;;;27.11;13.42;101109.66;5117143;28;20034;-67
2021/12/17 13:37:00;;;;;;;1.52;0.70;;;;;;;27.21;13.74;101114.31;5116139;28;20024;-67
2021/12/17 13:39:28;;;;;;;2.55;1.05;;;;;;;27.15;13.39;101114.31;5116521;28;20019;-68
2021/12/17 13:41:53;;;;;;;1.55;0.70;;;;;;;27.08;13.57;101102.00;5115834;28;20084;-67
2021/12/17 13:44:35;;;;;;;2.85;1.13;;;;;;;27.10;13.54;101103.38;5116174;28;20374;-67
2021/12/17 13:47:21;;;;;;;3.10;1.20;;;;;;;27.08;13.67;101116.56;5115896;27;20469;-67
2021/12/17 13:49:53;;;;;;;2.83;1.23;;;;;;;26.97;13.64;101125.91;5114789;28;20023;-68
2021/12/17 13:52:21;;;;;;;4.00;1.70;;;;;;;26.83;13.98;101124.88;5116043;28;20076;-67
2021/12/17 13:54:47;;;;;;;1.90;1.10;;;;;;;26.85;13.78;101139.94;5116217;28;20027;-66
2021/12/17 13:57:16;;;;;;;1.73;1.20;;;;;;;27.09;13.62;101153.03;5116039;28;20030;-68
2021/12/17 13:59:41;;;;;;;2.63;1.20;;;;;;;27.16;13.51;101162.63;5115007;28;20156;-67
2021/12/17 14:02:20;;;;;;;2.25;1.08;;;;;;;27.17;13.64;101168.91;5115653;28;20041;-67
2021/12/17 14:05:00;;;;;;;1.40;0.77;;;;;;;27.20;13.73;101162.03;5116420;28;20055;-68
2021/12/17 14:07:28;;;;;;;1.48;0.77;;;;;;;27.17;13.49;101156.00;5116108;28;20034;-67
2021/12/17 14:10:09;;;;;;;1.77;0.95;;;;;;;27.20;13.68;101162.03;5115500;28;20158;-68
2021/12/17 14:12:37;;;;;;;1.10;0.60;;;;;;;27.17;13.50;101161.50;5115045;28;20024;-67
2021/12/17 14:15:24;;;;;;;1.33;0.57;;;;;;;27.20;13.60;101167.53;5116193;28;20132;-67
2021/12/17 14:17:59;;;;;;;1.33;0.70;;;;;;;27.17;13.49;101153.28;5115800;28;20027;-67
2021/12/17 14:20:26;;;;;;;1.77;0.70;;;;;;;27.15;13.61;101154.66;5115589;28;20038;-67
2021/12/17 14:22:53;;;;;;;2.55;1.35;;;;;;;27.12;13.58;101139.56;5115317;28;20058;-67
2021/12/17 14:25:29;;;;;;;2.80;1.10;;;;;;;27.17;13.51;101142.28;5115293;28;20469;-68
2021/12/17 14:27:56;;;;;;;0.77;0.50;;;;;;;27.12;13.41;101155.22;5115533;28;20089;-68
2021/12/17 14:30:22;;;;;;;0.77;0.60;;;;;;;27.12;13.75;101161.53;5126363;27;20024;-67
2021/12/17 14:32:48;;;;;;;1.38;0.60;;;;;;;27.12;13.86;101172.50;5135931;27;20023;-67
2021/12/17 14:35:14;;;;;;;1.05;0.70;;;;;;;27.12;13.66;101182.66;5135874;27;20034;-67
2021/12/17 14:37:49;;;;;;;1.33;0.60;;;;;;;27.07;13.80;101178.00;5135708;27;20024;-68